sensor_id;sensor_type;location;lat;lon;timestamp;P1;durP1;ratioP1;P2;durP2;ratioP2
15271;SDS011;7737;51.578;7.268;2024-02-16T00:00:57;1.75;;;1.20;;
15271;SDS011;7737;51.578;7.268;2024-02-16T00:03:23;2.17;;;1.30;;
15271;SDS011;7737;51.578;7.268;2024-02-16T00:05:50;2.20;;;1.20;;
15271;SDS011;7737;51.578;7.268;2024-02-16T00:08:17;2.20;;;1.10;;
15271;SDS011;7737;51.578;7.268;2024-02-16T00:10:43;2.65;;;1.15;;
15271;SDS011;7737;51.578;7.268;2024-02-16T00:13:10;2.75;;;1.30;;
15271;SDS011;7737;51.578;7.268;2024-02-16T00:15:38;2.33;;;1.20;;
15271;SDS011;7737;51.578;7.268;2024-02-16T00:18:05;3.38;;;1.40;;
15271;SDS011;7737;51.578;7.268;2024-02-16T00:20:31;2.22;;;1.20;;
15271;SDS011;7737;51.578;7.268;2024-02-16T00:22:58;2.28;;;1.38;;
15271;SDS011;7737;51.578;7.268;2024-02-16T00:25:25;2.17;;;1.20;;
15271;SDS011;7737;51.578;7.268;2024-02-16T00:27:51;3.40;;;1.38;;
15271;SDS011;7737;51.578;7.268;2024-02-16T00:30:19;1.70;;;1.23;;
15271;SDS011;7737;51.578;7.268;2024-02-16T00:32:47;4.15;;;1.40;;
15271;SDS011;7737;51.578;7.268;2024-02-16T00:35:14;1.92;;;1.20;;
15271;SDS011;7737;51.578;7.268;2024-02-16T00:37:42;2.40;;;1.15;;
15271;SDS011;7737;51.578;7.268;2024-02-16T00:40:11;2.88;;;1.27;;
15271;SDS011;7737;51.578;7.268;2024-02-16T00:42:38;3.55;;;1.35;;
15271;SDS011;7737;51.578;7.268;2024-02-16T00:45:05;2.63;;;1.30;;
15271;SDS011;7737;51.578;7.268;2024-02-16T00:47:32;3.15;;;1.55;;
15271;SDS011;7737;51.578;7.268;2024-02-16T00:50:00;3.03;;;1.48;;
15271;SDS011;7737;51.578;7.268;2024-02-16T00:52:26;4.38;;;1.40;;
15271;SDS011;7737;51.578;7.268;2024-02-16T00:54:53;3.63;;;1.48;;
15271;SDS011;7737;51.578;7.268;2024-02-16T00:57:19;4.07;;;1.50;;
15271;SDS011;7737;51.578;7.268;2024-02-16T00:59:46;3.47;;;1.40;;
15271;SDS011;7737;51.578;7.268;2024-02-16T01:02:12;3.20;;;1.40;;
15271;SDS011;7737;51.578;7.268;2024-02-16T01:04:39;2.53;;;1.45;;
15271;SDS011;7737;51.578;7.268;2024-02-16T01:07:07;2.63;;;1.23;;
15271;SDS011;7737;51.578;7.268;2024-02-16T01:09:33;2.03;;;1.20;;
15271;SDS011;7737;51.578;7.268;2024-02-16T01:12:00;2.78;;;1.40;;
15271;SDS011;7737;51.578;7.268;2024-02-16T01:14:26;2.53;;;1.60;;
15271;SDS011;7737;51.578;7.268;2024-02-16T01:16:52;3.47;;;1.60;;
15271;SDS011;7737;51.578;7.268;2024-02-16T01:19:19;2.42;;;1.27;;
15271;SDS011;7737;51.578;7.268;2024-02-16T01:21:45;2.58;;;1.30;;
15271;SDS011;7737;51.578;7.268;2024-02-16T01:24:18;3.88;;;1.40;;
15271;SDS011;7737;51.578;7.268;2024-02-16T01:26:45;3.45;;;1.50;;
15271;SDS011;7737;51.578;7.268;2024-02-16T01:29:11;2.38;;;1.40;;
15271;SDS011;7737;51.578;7.268;2024-02-16T01:31:38;5.05;;;1.63;;
15271;SDS011;7737;51.578;7.268;2024-02-16T01:34:04;2.95;;;1.45;;
15271;SDS011;7737;51.578;7.268;2024-02-16T01:36:31;3.03;;;1.30;;
15271;SDS011;7737;51.578;7.268;2024-02-16T01:38:57;4.38;;;1.40;;
15271;SDS011;7737;51.578;7.268;2024-02-16T01:41:25;2.88;;;1.17;;
15271;SDS011;7737;51.578;7.268;2024-02-16T01:43:51;3.65;;;1.50;;
15271;SDS011;7737;51.578;7.268;2024-02-16T01:46:18;3.83;;;1.75;;
15271;SDS011;7737;51.578;7.268;2024-02-16T01:48:45;2.33;;;1.60;;
15271;SDS011;7737;51.578;7.268;2024-02-16T01:51:11;2.47;;;1.10;;
15271;SDS011;7737;51.578;7.268;2024-02-16T01:53:39;2.45;;;1.20;;
15271;SDS011;7737;51.578;7.268;2024-02-16T01:56:06;3.17;;;1.20;;
15271;SDS011;7737;51.578;7.268;2024-02-16T01:58:34;2.38;;;1.17;;
15271;SDS011;7737;51.578;7.268;2024-02-16T02:01:01;2.42;;;1.40;;
15271;SDS011;7737;51.578;7.268;2024-02-16T02:03:28;2.60;;;1.45;;
15271;SDS011;7737;51.578;7.268;2024-02-16T02:05:55;1.58;;;1.17;;
15271;SDS011;7737;51.578;7.268;2024-02-16T02:08:22;2.63;;;1.20;;
15271;SDS011;7737;51.578;7.268;2024-02-16T02:10:48;3.17;;;1.30;;
15271;SDS011;7737;51.578;7.268;2024-02-16T02:13:15;2.80;;;1.40;;
15271;SDS011;7737;51.578;7.268;2024-02-16T02:15:43;4.18;;;1.45;;
15271;SDS011;7737;51.578;7.268;2024-02-16T02:18:09;4.10;;;1.33;;
15271;SDS011;7737;51.578;7.268;2024-02-16T02:20:36;3.45;;;1.40;;
15271;SDS011;7737;51.578;7.268;2024-02-16T02:23:04;2.05;;;1.23;;
15271;SDS011;7737;51.578;7.268;2024-02-16T02:25:30;3.63;;;1.50;;
15271;SDS011;7737;51.578;7.268;2024-02-16T02:27:57;4.28;;;1.23;;
15271;SDS011;7737;51.578;7.268;2024-02-16T02:30:23;2.97;;;1.20;;
15271;SDS011;7737;51.578;7.268;2024-02-16T02:32:50;2.92;;;1.40;;
15271;SDS011;7737;51.578;7.268;2024-02-16T02:35:17;2.22;;;1.30;;
15271;SDS011;7737;51.578;7.268;2024-02-16T02:37:44;2.85;;;1.30;;
15271;SDS011;7737;51.578;7.268;2024-02-16T02:40:12;2.05;;;1.30;;
15271;SDS011;7737;51.578;7.268;2024-02-16T02:42:39;4.82;;;1.52;;
15271;SDS011;7737;51.578;7.268;2024-02-16T02:45:05;2.75;;;1.20;;
15271;SDS011;7737;51.578;7.268;2024-02-16T02:47:33;2.67;;;1.50;;
15271;SDS011;7737;51.578;7.268;2024-02-16T02:49:59;4.68;;;1.48;;
15271;SDS011;7737;51.578;7.268;2024-02-16T02:52:26;2.38;;;1.38;;
15271;SDS011;7737;51.578;7.268;2024-02-16T02:54:52;3.58;;;1.27;;
15271;SDS011;7737;51.578;7.268;2024-02-16T02:57:20;2.35;;;1.70;;
15271;SDS011;7737;51.578;7.268;2024-02-16T02:59:46;2.65;;;1.27;;
15271;SDS011;7737;51.578;7.268;2024-02-16T03:02:13;2.70;;;1.30;;
15271;SDS011;7737;51.578;7.268;2024-02-16T03:04:39;2.08;;;1.23;;
15271;SDS011;7737;51.578;7.268;2024-02-16T03:07:06;3.78;;;1.50;;
15271;SDS011;7737;51.578;7.268;2024-02-16T03:09:33;3.60;;;1.25;;
15271;SDS011;7737;51.578;7.268;2024-02-16T03:11:59;2.75;;;1.00;;
15271;SDS011;7737;51.578;7.268;2024-02-16T03:14:28;2.22;;;1.30;;
15271;SDS011;7737;51.578;7.268;2024-02-16T03:16:54;1.83;;;1.27;;
15271;SDS011;7737;51.578;7.268;2024-02-16T03:19:21;2.83;;;1.27;;
15271;SDS011;7737;51.578;7.268;2024-02-16T03:21:47;2.80;;;1.38;;
15271;SDS011;7737;51.578;7.268;2024-02-16T03:24:14;3.00;;;1.30;;
15271;SDS011;7737;51.578;7.268;2024-02-16T03:26:40;2.35;;;1.40;;
15271;SDS011;7737;51.578;7.268;2024-02-16T03:29:07;3.70;;;1.30;;
15271;SDS011;7737;51.578;7.268;2024-02-16T03:31:34;2.17;;;1.10;;
15271;SDS011;7737;51.578;7.268;2024-02-16T03:34:01;2.28;;;1.15;;
15271;SDS011;7737;51.578;7.268;2024-02-16T03:36:28;2.50;;;1.10;;
15271;SDS011;7737;51.578;7.268;2024-02-16T03:38:55;3.40;;;1.40;;
15271;SDS011;7737;51.578;7.268;2024-02-16T03:41:22;4.07;;;1.50;;
15271;SDS011;7737;51.578;7.268;2024-02-16T03:43:49;2.55;;;1.38;;
15271;SDS011;7737;51.578;7.268;2024-02-16T03:46:16;2.88;;;1.42;;
15271;SDS011;7737;51.578;7.268;2024-02-16T03:48:43;3.22;;;1.35;;
15271;SDS011;7737;51.578;7.268;2024-02-16T03:51:10;2.67;;;1.17;;
15271;SDS011;7737;51.578;7.268;2024-02-16T03:53:37;2.72;;;1.33;;
15271;SDS011;7737;51.578;7.268;2024-02-16T03:56:04;2.15;;;1.45;;
15271;SDS011;7737;51.578;7.268;2024-02-16T03:58:32;2.10;;;1.35;;
15271;SDS011;7737;51.578;7.268;2024-02-16T04:00:59;2.67;;;1.42;;
15271;SDS011;7737;51.578;7.268;2024-02-16T04:03:25;1.88;;;1.13;;
15271;SDS011;7737;51.578;7.268;2024-02-16T04:05:53;3.70;;;1.27;;
15271;SDS011;7737;51.578;7.268;2024-02-16T04:08:20;3.17;;;1.40;;
15271;SDS011;7737;51.578;7.268;2024-02-16T04:10:46;2.65;;;2.00;;
15271;SDS011;7737;51.578;7.268;2024-02-16T04:13:13;3.30;;;1.55;;
15271;SDS011;7737;51.578;7.268;2024-02-16T04:15:39;3.78;;;1.80;;
15271;SDS011;7737;51.578;7.268;2024-02-16T04:18:06;2.25;;;1.40;;
15271;SDS011;7737;51.578;7.268;2024-02-16T04:20:33;3.05;;;1.30;;
15271;SDS011;7737;51.578;7.268;2024-02-16T04:23:01;2.40;;;1.20;;
15271;SDS011;7737;51.578;7.268;2024-02-16T04:25:28;1.95;;;1.17;;
15271;SDS011;7737;51.578;7.268;2024-02-16T04:27:54;2.58;;;1.30;;
15271;SDS011;7737;51.578;7.268;2024-02-16T04:30:21;2.65;;;1.23;;
15271;SDS011;7737;51.578;7.268;2024-02-16T04:32:48;3.17;;;1.38;;
15271;SDS011;7737;51.578;7.268;2024-02-16T04:35:14;3.13;;;1.40;;
15271;SDS011;7737;51.578;7.268;2024-02-16T04:37:41;2.42;;;1.30;;
15271;SDS011;7737;51.578;7.268;2024-02-16T04:40:10;2.80;;;1.10;;
15271;SDS011;7737;51.578;7.268;2024-02-16T04:42:38;1.95;;;1.15;;
15271;SDS011;7737;51.578;7.268;2024-02-16T04:45:05;2.72;;;1.50;;
15271;SDS011;7737;51.578;7.268;2024-02-16T04:47:33;1.85;;;1.20;;
15271;SDS011;7737;51.578;7.268;2024-02-16T04:50:00;3.47;;;1.35;;
15271;SDS011;7737;51.578;7.268;2024-02-16T04:52:26;2.40;;;1.10;;
15271;SDS011;7737;51.578;7.268;2024-02-16T04:54:53;2.20;;;1.60;;
15271;SDS011;7737;51.578;7.268;2024-02-16T04:57:21;2.30;;;1.30;;
15271;SDS011;7737;51.578;7.268;2024-02-16T04:59:47;2.90;;;1.35;;
15271;SDS011;7737;51.578;7.268;2024-02-16T05:02:14;3.67;;;1.60;;
15271;SDS011;7737;51.578;7.268;2024-02-16T05:04:40;2.35;;;1.38;;
15271;SDS011;7737;51.578;7.268;2024-02-16T05:07:07;6.35;;;1.75;;
15271;SDS011;7737;51.578;7.268;2024-02-16T05:09:33;2.90;;;1.40;;
15271;SDS011;7737;51.578;7.268;2024-02-16T05:12:00;3.17;;;1.48;;
15271;SDS011;7737;51.578;7.268;2024-02-16T05:14:29;2.63;;;1.30;;
15271;SDS011;7737;51.578;7.268;2024-02-16T05:16:55;2.40;;;1.50;;
15271;SDS011;7737;51.578;7.268;2024-02-16T05:19:21;3.05;;;1.33;;
15271;SDS011;7737;51.578;7.268;2024-02-16T05:21:48;2.67;;;1.45;;
15271;SDS011;7737;51.578;7.268;2024-02-16T05:24:14;2.67;;;1.60;;
15271;SDS011;7737;51.578;7.268;2024-02-16T05:26:41;2.30;;;1.55;;
15271;SDS011;7737;51.578;7.268;2024-02-16T05:29:07;3.05;;;1.27;;
15271;SDS011;7737;51.578;7.268;2024-02-16T05:31:35;3.05;;;1.50;;
15271;SDS011;7737;51.578;7.268;2024-02-16T05:34:01;1.92;;;1.40;;
15271;SDS011;7737;51.578;7.268;2024-02-16T05:36:28;2.33;;;1.48;;
15271;SDS011;7737;51.578;7.268;2024-02-16T05:39:00;2.50;;;1.38;;
15271;SDS011;7737;51.578;7.268;2024-02-16T05:41:34;3.65;;;1.70;;
15271;SDS011;7737;51.578;7.268;2024-02-16T05:44:02;3.13;;;1.60;;
15271;SDS011;7737;51.578;7.268;2024-02-16T05:46:29;4.22;;;1.77;;
15271;SDS011;7737;51.578;7.268;2024-02-16T05:48:57;2.55;;;1.40;;
15271;SDS011;7737;51.578;7.268;2024-02-16T05:51:24;3.72;;;1.70;;
15271;SDS011;7737;51.578;7.268;2024-02-16T05:53:50;2.30;;;1.70;;
15271;SDS011;7737;51.578;7.268;2024-02-16T05:56:17;3.55;;;1.50;;
15271;SDS011;7737;51.578;7.268;2024-02-16T05:58:43;2.40;;;1.42;;
15271;SDS011;7737;51.578;7.268;2024-02-16T06:01:10;3.97;;;1.70;;
15271;SDS011;7737;51.578;7.268;2024-02-16T06:03:37;2.60;;;1.40;;
15271;SDS011;7737;51.578;7.268;2024-02-16T06:06:05;2.58;;;1.58;;
15271;SDS011;7737;51.578;7.268;2024-02-16T06:08:33;3.90;;;2.03;;
15271;SDS011;7737;51.578;7.268;2024-02-16T06:10:59;2.00;;;1.40;;
15271;SDS011;7737;51.578;7.268;2024-02-16T06:13:27;3.75;;;1.70;;
15271;SDS011;7737;51.578;7.268;2024-02-16T06:15:54;3.75;;;1.60;;
15271;SDS011;7737;51.578;7.268;2024-02-16T06:18:22;2.20;;;1.42;;
15271;SDS011;7737;51.578;7.268;2024-02-16T06:20:48;3.63;;;1.60;;
15271;SDS011;7737;51.578;7.268;2024-02-16T06:23:16;4.15;;;1.80;;
15271;SDS011;7737;51.578;7.268;2024-02-16T06:25:43;4.35;;;1.55;;
15271;SDS011;7737;51.578;7.268;2024-02-16T06:28:09;2.00;;;1.50;;
15271;SDS011;7737;51.578;7.268;2024-02-16T06:30:36;2.80;;;1.77;;
15271;SDS011;7737;51.578;7.268;2024-02-16T06:33:02;3.65;;;1.63;;
15271;SDS011;7737;51.578;7.268;2024-02-16T06:35:29;3.85;;;1.80;;
15271;SDS011;7737;51.578;7.268;2024-02-16T06:37:56;3.92;;;1.95;;
15271;SDS011;7737;51.578;7.268;2024-02-16T06:40:23;3.25;;;1.85;;
15271;SDS011;7737;51.578;7.268;2024-02-16T06:42:51;4.10;;;1.83;;
15271;SDS011;7737;51.578;7.268;2024-02-16T06:45:17;4.03;;;1.65;;
15271;SDS011;7737;51.578;7.268;2024-02-16T06:47:45;7.82;;;1.98;;
15271;SDS011;7737;51.578;7.268;2024-02-16T06:50:11;3.78;;;2.03;;
15271;SDS011;7737;51.578;7.268;2024-02-16T06:52:38;3.72;;;1.58;;
15271;SDS011;7737;51.578;7.268;2024-02-16T06:55:05;3.97;;;1.90;;
15271;SDS011;7737;51.578;7.268;2024-02-16T06:57:33;5.20;;;1.90;;
15271;SDS011;7737;51.578;7.268;2024-02-16T06:59:59;2.95;;;1.80;;
15271;SDS011;7737;51.578;7.268;2024-02-16T07:02:28;4.15;;;1.70;;
15271;SDS011;7737;51.578;7.268;2024-02-16T07:04:54;4.43;;;1.83;;
15271;SDS011;7737;51.578;7.268;2024-02-16T07:07:21;3.20;;;1.70;;
15271;SDS011;7737;51.578;7.268;2024-02-16T07:09:47;5.60;;;1.90;;
15271;SDS011;7737;51.578;7.268;2024-02-16T07:12:13;3.22;;;1.88;;
15271;SDS011;7737;51.578;7.268;2024-02-16T07:14:41;4.78;;;1.90;;
15271;SDS011;7737;51.578;7.268;2024-02-16T07:17:09;3.92;;;2.03;;
15271;SDS011;7737;51.578;7.268;2024-02-16T07:19:35;3.13;;;2.10;;
15271;SDS011;7737;51.578;7.268;2024-02-16T07:22:02;2.95;;;1.75;;
15271;SDS011;7737;51.578;7.268;2024-02-16T07:24:31;3.28;;;1.95;;
15271;SDS011;7737;51.578;7.268;2024-02-16T07:26:58;2.67;;;1.90;;
15271;SDS011;7737;51.578;7.268;2024-02-16T07:29:24;3.88;;;1.90;;
15271;SDS011;7737;51.578;7.268;2024-02-16T07:31:53;2.85;;;1.80;;
15271;SDS011;7737;51.578;7.268;2024-02-16T07:34:21;3.88;;;1.88;;
15271;SDS011;7737;51.578;7.268;2024-02-16T07:36:48;3.88;;;2.05;;
15271;SDS011;7737;51.578;7.268;2024-02-16T07:39:14;4.10;;;2.10;;
15271;SDS011;7737;51.578;7.268;2024-02-16T07:41:41;3.08;;;2.00;;
15271;SDS011;7737;51.578;7.268;2024-02-16T07:44:07;4.80;;;2.35;;
15271;SDS011;7737;51.578;7.268;2024-02-16T07:46:39;3.40;;;2.05;;
15271;SDS011;7737;51.578;7.268;2024-02-16T07:49:07;4.07;;;2.05;;
15271;SDS011;7737;51.578;7.268;2024-02-16T07:51:36;3.33;;;1.90;;
15271;SDS011;7737;51.578;7.268;2024-02-16T07:54:03;4.10;;;2.03;;
15271;SDS011;7737;51.578;7.268;2024-02-16T07:56:31;3.88;;;1.90;;
15271;SDS011;7737;51.578;7.268;2024-02-16T07:58:57;4.25;;;2.13;;
15271;SDS011;7737;51.578;7.268;2024-02-16T08:01:24;3.17;;;1.85;;
15271;SDS011;7737;51.578;7.268;2024-02-16T08:03:50;3.20;;;2.05;;
15271;SDS011;7737;51.578;7.268;2024-02-16T08:06:19;4.20;;;2.20;;
15271;SDS011;7737;51.578;7.268;2024-02-16T08:08:52;4.50;;;2.20;;
15271;SDS011;7737;51.578;7.268;2024-02-16T08:11:18;3.20;;;1.85;;
15271;SDS011;7737;51.578;7.268;2024-02-16T08:13:45;3.75;;;1.80;;
15271;SDS011;7737;51.578;7.268;2024-02-16T08:16:12;4.43;;;1.90;;
15271;SDS011;7737;51.578;7.268;2024-02-16T08:18:38;4.03;;;1.85;;
15271;SDS011;7737;51.578;7.268;2024-02-16T08:21:05;5.80;;;2.20;;
15271;SDS011;7737;51.578;7.268;2024-02-16T08:23:33;3.92;;;1.90;;
15271;SDS011;7737;51.578;7.268;2024-02-16T08:26:00;5.20;;;2.30;;
15271;SDS011;7737;51.578;7.268;2024-02-16T08:28:26;5.47;;;2.20;;
15271;SDS011;7737;51.578;7.268;2024-02-16T08:30:53;3.72;;;2.00;;
15271;SDS011;7737;51.578;7.268;2024-02-16T08:33:20;4.22;;;2.15;;
15271;SDS011;7737;51.578;7.268;2024-02-16T08:35:46;3.50;;;2.00;;
15271;SDS011;7737;51.578;7.268;2024-02-16T08:38:13;4.25;;;2.17;;
15271;SDS011;7737;51.578;7.268;2024-02-16T08:40:41;2.90;;;1.70;;
15271;SDS011;7737;51.578;7.268;2024-02-16T08:43:07;3.05;;;1.80;;
15271;SDS011;7737;51.578;7.268;2024-02-16T08:45:34;6.18;;;1.98;;
15271;SDS011;7737;51.578;7.268;2024-02-16T08:48:00;4.15;;;2.22;;
15271;SDS011;7737;51.578;7.268;2024-02-16T08:50:28;3.88;;;2.45;;
15271;SDS011;7737;51.578;7.268;2024-02-16T08:52:55;5.63;;;2.58;;
15271;SDS011;7737;51.578;7.268;2024-02-16T08:55:22;3.88;;;2.13;;
15271;SDS011;7737;51.578;7.268;2024-02-16T08:57:50;4.25;;;2.15;;
15271;SDS011;7737;51.578;7.268;2024-02-16T09:00:16;4.53;;;2.25;;
15271;SDS011;7737;51.578;7.268;2024-02-16T09:02:43;5.28;;;2.28;;
15271;SDS011;7737;51.578;7.268;2024-02-16T09:05:10;5.18;;;2.45;;
15271;SDS011;7737;51.578;7.268;2024-02-16T09:07:37;4.90;;;2.40;;
15271;SDS011;7737;51.578;7.268;2024-02-16T09:10:04;3.20;;;1.70;;
15271;SDS011;7737;51.578;7.268;2024-02-16T09:12:33;5.47;;;2.50;;
15271;SDS011;7737;51.578;7.268;2024-02-16T09:15:00;5.43;;;2.30;;
15271;SDS011;7737;51.578;7.268;2024-02-16T09:17:27;7.50;;;2.10;;
15271;SDS011;7737;51.578;7.268;2024-02-16T09:19:54;3.75;;;2.40;;
15271;SDS011;7737;51.578;7.268;2024-02-16T09:22:20;3.67;;;2.00;;
15271;SDS011;7737;51.578;7.268;2024-02-16T09:24:47;4.00;;;2.58;;
15271;SDS011;7737;51.578;7.268;2024-02-16T09:27:14;3.80;;;2.10;;
15271;SDS011;7737;51.578;7.268;2024-02-16T09:29:40;4.18;;;2.10;;
15271;SDS011;7737;51.578;7.268;2024-02-16T09:32:08;4.00;;;2.42;;
15271;SDS011;7737;51.578;7.268;2024-02-16T09:34:35;5.45;;;1.92;;
15271;SDS011;7737;51.578;7.268;2024-02-16T09:37:01;6.85;;;2.20;;
15271;SDS011;7737;51.578;7.268;2024-02-16T09:39:29;5.35;;;2.45;;
15271;SDS011;7737;51.578;7.268;2024-02-16T09:41:55;5.22;;;1.95;;
15271;SDS011;7737;51.578;7.268;2024-02-16T09:44:22;4.07;;;2.67;;
15271;SDS011;7737;51.578;7.268;2024-02-16T09:46:50;4.32;;;2.30;;
15271;SDS011;7737;51.578;7.268;2024-02-16T09:49:21;7.10;;;4.60;;
15271;SDS011;7737;51.578;7.268;2024-02-16T09:51:47;4.95;;;3.00;;
15271;SDS011;7737;51.578;7.268;2024-02-16T09:54:14;5.00;;;2.58;;
15271;SDS011;7737;51.578;7.268;2024-02-16T09:56:41;3.42;;;2.20;;
15271;SDS011;7737;51.578;7.268;2024-02-16T09:59:10;4.90;;;2.30;;
15271;SDS011;7737;51.578;7.268;2024-02-16T10:01:37;6.22;;;2.40;;
15271;SDS011;7737;51.578;7.268;2024-02-16T10:04:06;4.22;;;2.30;;
15271;SDS011;7737;51.578;7.268;2024-02-16T10:06:39;5.20;;;2.10;;
15271;SDS011;7737;51.578;7.268;2024-02-16T10:09:21;3.95;;;2.50;;
15271;SDS011;7737;51.578;7.268;2024-02-16T10:11:48;8.60;;;3.20;;
15271;SDS011;7737;51.578;7.268;2024-02-16T10:14:15;6.13;;;3.92;;
15271;SDS011;7737;51.578;7.268;2024-02-16T10:16:41;5.50;;;2.53;;
15271;SDS011;7737;51.578;7.268;2024-02-16T10:19:09;4.75;;;2.60;;
15271;SDS011;7737;51.578;7.268;2024-02-16T10:21:37;5.65;;;3.67;;
15271;SDS011;7737;51.578;7.268;2024-02-16T10:24:05;5.57;;;3.05;;
15271;SDS011;7737;51.578;7.268;2024-02-16T10:26:33;5.72;;;3.05;;
15271;SDS011;7737;51.578;7.268;2024-02-16T10:29:02;4.72;;;2.60;;
15271;SDS011;7737;51.578;7.268;2024-02-16T10:31:30;5.68;;;2.38;;
15271;SDS011;7737;51.578;7.268;2024-02-16T10:34:01;6.78;;;3.67;;
15271;SDS011;7737;51.578;7.268;2024-02-16T10:36:31;4.68;;;2.78;;
15271;SDS011;7737;51.578;7.268;2024-02-16T10:39:00;6.95;;;2.40;;
15271;SDS011;7737;51.578;7.268;2024-02-16T10:41:29;3.92;;;2.58;;
15271;SDS011;7737;51.578;7.268;2024-02-16T10:44:01;5.50;;;2.50;;
15271;SDS011;7737;51.578;7.268;2024-02-16T10:46:28;6.95;;;2.60;;
15271;SDS011;7737;51.578;7.268;2024-02-16T10:48:54;5.45;;;2.40;;
15271;SDS011;7737;51.578;7.268;2024-02-16T10:51:22;4.68;;;2.58;;
15271;SDS011;7737;51.578;7.268;2024-02-16T10:53:51;4.05;;;2.60;;
15271;SDS011;7737;51.578;7.268;2024-02-16T10:56:27;4.72;;;2.47;;
15271;SDS011;7737;51.578;7.268;2024-02-16T10:59:00;3.03;;;2.33;;
15271;SDS011;7737;51.578;7.268;2024-02-16T11:01:28;5.30;;;2.70;;
15271;SDS011;7737;51.578;7.268;2024-02-16T11:04:01;7.57;;;2.60;;
15271;SDS011;7737;51.578;7.268;2024-02-16T11:06:29;4.40;;;2.45;;
15271;SDS011;7737;51.578;7.268;2024-02-16T11:09:01;4.32;;;2.58;;
15271;SDS011;7737;51.578;7.268;2024-02-16T11:11:34;6.43;;;2.60;;
15271;SDS011;7737;51.578;7.268;2024-02-16T11:14:01;8.27;;;2.97;;
15271;SDS011;7737;51.578;7.268;2024-02-16T11:16:28;6.20;;;3.00;;
15271;SDS011;7737;51.578;7.268;2024-02-16T11:18:55;4.90;;;2.63;;
15271;SDS011;7737;51.578;7.268;2024-02-16T11:21:22;4.03;;;2.33;;
15271;SDS011;7737;51.578;7.268;2024-02-16T11:23:49;6.28;;;2.70;;
15271;SDS011;7737;51.578;7.268;2024-02-16T11:26:16;5.93;;;2.47;;
15271;SDS011;7737;51.578;7.268;2024-02-16T11:28:45;5.28;;;2.97;;
15271;SDS011;7737;51.578;7.268;2024-02-16T11:31:12;7.10;;;2.83;;
15271;SDS011;7737;51.578;7.268;2024-02-16T11:33:42;3.95;;;2.63;;
15271;SDS011;7737;51.578;7.268;2024-02-16T11:36:09;5.05;;;2.60;;
15271;SDS011;7737;51.578;7.268;2024-02-16T11:38:37;5.80;;;2.70;;
15271;SDS011;7737;51.578;7.268;2024-02-16T11:41:04;4.30;;;3.05;;
15271;SDS011;7737;51.578;7.268;2024-02-16T11:43:33;4.22;;;2.50;;
15271;SDS011;7737;51.578;7.268;2024-02-16T11:46:10;6.93;;;3.00;;
15271;SDS011;7737;51.578;7.268;2024-02-16T11:48:37;4.78;;;2.40;;
15271;SDS011;7737;51.578;7.268;2024-02-16T11:51:03;6.70;;;2.63;;
15271;SDS011;7737;51.578;7.268;2024-02-16T11:53:31;8.18;;;2.88;;
15271;SDS011;7737;51.578;7.268;2024-02-16T11:55:58;4.97;;;2.58;;
15271;SDS011;7737;51.578;7.268;2024-02-16T11:58:25;4.88;;;2.80;;
15271;SDS011;7737;51.578;7.268;2024-02-16T12:00:53;5.95;;;2.70;;
15271;SDS011;7737;51.578;7.268;2024-02-16T12:03:23;6.35;;;2.85;;
15271;SDS011;7737;51.578;7.268;2024-02-16T12:05:52;7.68;;;3.33;;
15271;SDS011;7737;51.578;7.268;2024-02-16T12:08:19;6.78;;;2.88;;
15271;SDS011;7737;51.578;7.268;2024-02-16T12:10:47;6.07;;;2.80;;
15271;SDS011;7737;51.578;7.268;2024-02-16T12:13:15;5.03;;;3.30;;
15271;SDS011;7737;51.578;7.268;2024-02-16T12:15:43;4.32;;;2.60;;
15271;SDS011;7737;51.578;7.268;2024-02-16T12:18:09;3.95;;;2.70;;
15271;SDS011;7737;51.578;7.268;2024-02-16T12:20:38;4.72;;;3.00;;
15271;SDS011;7737;51.578;7.268;2024-02-16T12:23:11;4.78;;;3.15;;
15271;SDS011;7737;51.578;7.268;2024-02-16T12:25:38;5.80;;;3.00;;
15271;SDS011;7737;51.578;7.268;2024-02-16T12:28:04;8.93;;;3.08;;
15271;SDS011;7737;51.578;7.268;2024-02-16T12:30:33;5.53;;;2.80;;
15271;SDS011;7737;51.578;7.268;2024-02-16T12:32:59;7.32;;;3.17;;
15271;SDS011;7737;51.578;7.268;2024-02-16T12:35:26;7.07;;;3.08;;
15271;SDS011;7737;51.578;7.268;2024-02-16T12:37:53;7.72;;;3.15;;
15271;SDS011;7737;51.578;7.268;2024-02-16T12:40:20;6.22;;;3.20;;
15271;SDS011;7737;51.578;7.268;2024-02-16T12:42:46;4.00;;;2.70;;
15271;SDS011;7737;51.578;7.268;2024-02-16T12:45:13;5.22;;;3.40;;
15271;SDS011;7737;51.578;7.268;2024-02-16T12:47:41;5.50;;;3.60;;
15271;SDS011;7737;51.578;7.268;2024-02-16T12:50:07;7.90;;;4.18;;
15271;SDS011;7737;51.578;7.268;2024-02-16T12:52:34;7.82;;;3.75;;
15271;SDS011;7737;51.578;7.268;2024-02-16T12:55:05;6.30;;;3.13;;
15271;SDS011;7737;51.578;7.268;2024-02-16T12:57:34;9.20;;;4.20;;
15271;SDS011;7737;51.578;7.268;2024-02-16T13:00:01;9.27;;;4.35;;
15271;SDS011;7737;51.578;7.268;2024-02-16T13:02:28;8.80;;;4.15;;
15271;SDS011;7737;51.578;7.268;2024-02-16T13:04:55;5.95;;;3.97;;
15271;SDS011;7737;51.578;7.268;2024-02-16T13:07:22;5.88;;;3.58;;
15271;SDS011;7737;51.578;7.268;2024-02-16T13:09:50;7.97;;;4.00;;
15271;SDS011;7737;51.578;7.268;2024-02-16T13:12:19;6.30;;;3.63;;
15271;SDS011;7737;51.578;7.268;2024-02-16T13:14:48;8.68;;;4.20;;
15271;SDS011;7737;51.578;7.268;2024-02-16T13:17:15;7.85;;;4.60;;
15271;SDS011;7737;51.578;7.268;2024-02-16T13:19:42;7.18;;;4.50;;
15271;SDS011;7737;51.578;7.268;2024-02-16T13:22:08;7.03;;;4.57;;
15271;SDS011;7737;51.578;7.268;2024-02-16T13:24:35;7.40;;;4.55;;
15271;SDS011;7737;51.578;7.268;2024-02-16T13:27:01;10.18;;;4.90;;
15271;SDS011;7737;51.578;7.268;2024-02-16T13:29:30;8.10;;;4.65;;
15271;SDS011;7737;51.578;7.268;2024-02-16T13:31:57;9.13;;;4.75;;
15271;SDS011;7737;51.578;7.268;2024-02-16T13:34:23;9.80;;;4.75;;
15271;SDS011;7737;51.578;7.268;2024-02-16T13:36:52;8.55;;;5.20;;
15271;SDS011;7737;51.578;7.268;2024-02-16T13:39:18;6.00;;;4.82;;
15271;SDS011;7737;51.578;7.268;2024-02-16T13:41:47;8.95;;;6.35;;
15271;SDS011;7737;51.578;7.268;2024-02-16T13:44:16;10.43;;;6.20;;
15271;SDS011;7737;51.578;7.268;2024-02-16T13:46:45;9.18;;;6.80;;
15271;SDS011;7737;51.578;7.268;2024-02-16T13:49:13;10.32;;;7.45;;
15271;SDS011;7737;51.578;7.268;2024-02-16T13:51:40;12.82;;;8.65;;
15271;SDS011;7737;51.578;7.268;2024-02-16T13:54:07;11.38;;;10.18;;
15271;SDS011;7737;51.578;7.268;2024-02-16T13:56:34;12.88;;;10.82;;
15271;SDS011;7737;51.578;7.268;2024-02-16T13:59:01;12.10;;;10.88;;
15271;SDS011;7737;51.578;7.268;2024-02-16T14:01:28;14.07;;;11.40;;
15271;SDS011;7737;51.578;7.268;2024-02-16T14:03:56;13.35;;;11.85;;
15271;SDS011;7737;51.578;7.268;2024-02-16T14:06:23;16.02;;;12.10;;
15271;SDS011;7737;51.578;7.268;2024-02-16T14:08:50;15.55;;;12.38;;
15271;SDS011;7737;51.578;7.268;2024-02-16T14:11:17;13.68;;;12.23;;
15271;SDS011;7737;51.578;7.268;2024-02-16T14:13:44;13.32;;;11.93;;
15271;SDS011;7737;51.578;7.268;2024-02-16T14:16:11;13.60;;;12.20;;
15271;SDS011;7737;51.578;7.268;2024-02-16T14:18:37;14.02;;;12.02;;
15271;SDS011;7737;51.578;7.268;2024-02-16T14:21:05;14.43;;;12.73;;
15271;SDS011;7737;51.578;7.268;2024-02-16T14:23:32;17.13;;;12.88;;
15271;SDS011;7737;51.578;7.268;2024-02-16T14:25:59;15.52;;;13.10;;
15271;SDS011;7737;51.578;7.268;2024-02-16T14:28:26;15.68;;;12.60;;
15271;SDS011;7737;51.578;7.268;2024-02-16T14:30:52;14.82;;;13.23;;
15271;SDS011;7737;51.578;7.268;2024-02-16T14:33:19;15.73;;;13.75;;
15271;SDS011;7737;51.578;7.268;2024-02-16T14:35:46;18.08;;;14.25;;
15271;SDS011;7737;51.578;7.268;2024-02-16T14:38:14;14.90;;;13.38;;
15271;SDS011;7737;51.578;7.268;2024-02-16T14:40:41;15.00;;;13.13;;
15271;SDS011;7737;51.578;7.268;2024-02-16T14:43:07;15.13;;;13.63;;
15271;SDS011;7737;51.578;7.268;2024-02-16T14:45:34;15.45;;;13.07;;
15271;SDS011;7737;51.578;7.268;2024-02-16T14:48:03;13.85;;;12.45;;
15271;SDS011;7737;51.578;7.268;2024-02-16T14:50:30;14.02;;;12.52;;
15271;SDS011;7737;51.578;7.268;2024-02-16T14:52:57;11.85;;;10.52;;
15271;SDS011;7737;51.578;7.268;2024-02-16T14:55:25;11.30;;;9.85;;
15271;SDS011;7737;51.578;7.268;2024-02-16T14:57:51;11.15;;;10.05;;
15271;SDS011;7737;51.578;7.268;2024-02-16T15:00:19;10.48;;;9.50;;